Time;durP1;ratioP1;P1;durP2;ratioP2;P2;SDS_P1;SDS_P2;PMS_P1;PMS_P2;Temp;Humidity;BMP_temperature;BMP_pressure;BME280_temperature;BME280_humidity;BME280_pressure;Samples;Min_cycle;Max_cycle;Signal;HPM_P1;HPM_P2
2022/10/22 00:01:06;;;;;;;36.03;23.10;;;8.00;99.90;7.30;99908;;;;556760;253;24142;-82
2022/10/22 00:03:34;;;;;;;41.80;23.83;;;8.00;99.90;7.30;99901;;;;559010;252;24199;-80
2022/10/22 00:06:02;;;;;;;41.43;25.80;;;8.00;99.90;7.30;99905;;;;559149;251;24162;-82
2022/10/22 00:08:30;;;;;;;43.13;24.30;;;8.00;99.90;7.30;99906;;;;560049;252;24202;-84
2022/10/22 00:10:58;;;;;;;35.07;22.77;;;8.00;99.90;7.30;99906;;;;560184;252;24149;-81
2022/10/22 00:13:30;;;;;;;41.57;23.87;;;8.00;99.90;7.30;99913;;;;559556;252;24142;-82
2022/10/22 00:15:59;;;;;;;40.80;23.90;;;8.00;99.90;7.30;99906;;;;567946;252;24192;-84
2022/10/22 00:18:23;;;;;;;37.83;23.07;;;8.00;99.90;7.30;99909;;;;558872;252;24143;-84
2022/10/22 00:20:51;;;;;;;36.37;24.33;;;8.00;99.90;7.30;99908;;;;558747;252;24186;-81
2022/10/22 00:23:20;;;;;;;40.50;22.70;;;8.00;99.90;7.30;99906;;;;559002;252;24126;-82
2022/10/22 00:25:48;;;;;;;39.10;22.63;;;8.00;99.90;7.30;99904;;;;558682;253;24108;-81
2022/10/22 00:28:17;;;;;;;39.00;23.53;;;8.00;99.90;7.30;99907;;;;558809;253;24144;-81
2022/10/22 00:30:46;;;;;;;36.80;23.43;;;8.10;99.90;7.30;99906;;;;556764;251;25210;-80
2022/10/22 00:33:17;;;;;;;48.03;23.87;;;8.10;99.90;7.30;99896;;;;558802;253;27321;-82
2022/10/22 00:35:43;;;;;;;37.10;23.40;;;8.10;99.90;7.30;99894;;;;567182;253;26375;-82
2022/10/22 00:38:11;;;;;;;35.87;23.07;;;8.10;99.90;7.40;99895;;;;567354;253;24128;-80
2022/10/22 00:40:39;;;;;;;38.07;22.73;;;8.10;99.90;7.40;99886;;;;558723;253;24148;-83
2022/10/22 00:43:13;;;;;;;35.03;22.23;;;8.20;99.90;7.40;99886;;;;559062;253;24174;-82
2022/10/22 00:45:45;;;;;;;33.83;22.03;;;8.10;99.90;7.40;99886;;;;567172;253;24132;-82
2022/10/22 00:48:16;;;;;;;37.17;23.07;;;8.20;99.90;7.40;99884;;;;567315;253;24120;-81
2022/10/22 00:50:47;;;;;;;37.83;23.13;;;8.20;99.90;7.40;99874;;;;556731;253;24194;-83
2022/10/22 00:53:21;;;;;;;32.67;22.10;;;8.20;99.90;7.50;99870;;;;566914;251;24147;-84
2022/10/22 00:55:48;;;;;;;44.03;24.03;;;8.20;99.90;7.50;99873;;;;558869;253;24187;-83
2022/10/22 00:58:20;;;;;;;39.53;22.97;;;8.30;99.90;7.50;99861;;;;558987;253;24198;-81
2022/10/22 01:00:44;;;;;;;35.97;22.33;;;8.30;99.90;7.50;99868;;;;567397;251;24204;-80
2022/10/22 01:03:13;;;;;;;40.40;22.43;;;8.30;99.90;7.50;99869;;;;558235;251;24134;-82
2022/10/22 01:05:43;;;;;;;36.90;23.17;;;8.30;99.90;7.50;99862;;;;566706;251;24139;-82
2022/10/22 01:08:11;;;;;;;40.70;23.07;;;8.30;99.90;7.50;99867;;;;556086;251;24159;-80
2022/10/22 01:10:54;;;;;;;38.97;24.13;;;8.30;99.90;7.60;99864;;;;558350;253;24153;-84
2022/10/22 01:13:39;;;;;;;42.13;22.50;;;8.30;99.90;7.60;99864;;;;567785;251;24135;-83
2022/10/22 01:16:16;;;;;;;35.53;22.43;;;8.30;99.90;7.60;99857;;;;558138;253;24279;-82
2022/10/22 01:18:59;;;;;;;33.17;22.03;;;8.30;99.90;7.60;99845;;;;567477;247;24151;-81
2022/10/22 01:21:35;;;;;;;39.97;23.23;;;8.30;99.90;7.60;99844;;;;551669;252;24190;-83
2022/10/22 01:24:18;;;;;;;43.40;24.43;;;8.30;99.90;7.60;99841;;;;559672;252;24136;-82
2022/10/22 01:27:10;;;;;;;41.77;23.70;;;8.30;99.90;7.60;99845;;;;559243;252;24180;-81
2022/10/22 01:29:46;;;;;;;39.60;24.23;;;8.30;99.90;7.60;99850;;;;567532;252;24170;-81
2022/10/22 01:32:14;;;;;;;37.07;23.67;;;8.40;99.90;7.60;99849;;;;558997;252;24153;-83
2022/10/22 01:34:42;;;;;;;40.07;23.67;;;8.40;99.90;7.60;99843;;;;559201;252;24214;-83
2022/10/22 01:37:10;;;;;;;42.23;23.63;;;8.30;99.90;7.60;99851;;;;559206;251;24126;-83
2022/10/22 01:39:38;;;;;;;37.23;23.27;;;8.40;99.90;7.60;99854;;;;559031;252;24226;-81
2022/10/22 01:42:07;;;;;;;37.40;23.53;;;8.30;99.90;7.50;99847;;;;558883;253;24245;-80
2022/10/22 01:44:37;;;;;;;40.60;25.23;;;8.30;99.90;7.50;99847;;;;558841;253;24148;-80
2022/10/22 01:47:17;;;;;;;35.73;24.00;;;8.30;99.90;7.50;99842;;;;558864;251;24127;-80
2022/10/22 01:50:10;;;;;;;41.90;23.90;;;8.30;99.90;7.50;99843;;;;558849;253;24169;-83
2022/10/22 01:53:02;;;;;;;32.50;20.97;;;8.20;99.90;7.40;99847;;;;566532;253;24132;-82
2022/10/22 01:55:41;;;;;;;37.07;22.77;;;8.20;99.90;7.40;99834;;;;567644;251;24196;-80
2022/10/22 01:58:46;;;;;;;33.73;22.10;;;8.20;99.90;7.40;99836;;;;563944;253;24221;-81
2022/10/22 02:01:31;;;;;;;34.03;23.00;;;8.10;99.90;7.30;99829;;;;558556;253;24134;-81
2022/10/22 02:04:05;;;;;;;39.53;23.23;;;8.10;99.90;7.30;99832;;;;557871;253;24122;-80
2022/10/22 02:06:34;;;;;;;36.23;22.07;;;8.10;99.90;7.30;99827;;;;563814;251;25230;-80
2022/10/22 02:09:02;;;;;;;39.93;24.90;;;8.00;99.90;7.30;99834;;;;558187;252;24133;-82
2022/10/22 02:11:33;;;;;;;36.70;22.03;;;8.10;99.90;7.30;99831;;;;558472;253;24136;-83
2022/10/22 02:13:58;;;;;;;40.20;24.00;;;8.00;99.90;7.20;99830;;;;567002;253;24133;-82
2022/10/22 02:16:30;;;;;;;34.23;21.77;;;8.00;99.90;7.30;99830;;;;558463;252;24164;-82
2022/10/22 02:19:00;;;;;;;39.57;22.97;;;8.00;99.90;7.30;99825;;;;558772;253;24178;-83
2022/10/22 02:21:32;;;;;;;37.67;24.30;;;8.00;99.90;7.30;99823;;;;567541;247;24156;-81
2022/10/22 02:23:57;;;;;;;42.23;24.50;;;8.10;99.90;7.30;99828;;;;558312;253;24321;-81
2022/10/22 02:26:28;;;;;;;34.53;22.93;;;8.00;99.90;7.30;99831;;;;558819;253;24131;-81
2022/10/22 02:29:11;;;;;;;38.43;22.67;;;8.00;99.90;7.30;99823;;;;558585;253;24163;-80
2022/10/22 02:31:39;;;;;;;33.33;21.27;;;8.10;99.90;7.30;99826;;;;568496;247;24171;-80
2022/10/22 02:34:09;;;;;;;38.70;24.13;;;8.10;99.90;7.30;99828;;;;567546;252;24139;-80
2022/10/22 02:36:40;;;;;;;38.97;22.23;;;8.00;99.90;7.30;99829;;;;560324;251;24123;-83
2022/10/22 02:39:05;;;;;;;35.47;24.10;;;8.00;99.90;7.30;99832;;;;566855;252;24144;-83
2022/10/22 02:41:33;;;;;;;38.57;23.23;;;8.00;99.90;7.30;99831;;;;559660;252;24129;-83
2022/10/22 02:44:01;;;;;;;44.83;24.53;;;8.10;99.90;7.30;99835;;;;568506;251;24228;-83
2022/10/22 02:46:30;;;;;;;45.13;23.83;;;8.10;99.90;7.40;99837;;;;559507;252;24154;-83
2022/10/22 02:48:58;;;;;;;43.47;25.10;;;8.10;99.90;7.40;99835;;;;559455;253;24182;-83
2022/10/22 02:51:28;;;;;;;44.23;24.80;;;8.10;99.90;7.40;99835;;;;559107;251;24213;-83
2022/10/22 02:53:56;;;;;;;42.93;24.03;;;8.20;99.90;7.40;99832;;;;557703;253;24148;-82
2022/10/22 02:56:22;;;;;;;40.17;23.83;;;8.20;99.90;7.40;99833;;;;567703;247;24143;-83
2022/10/22 02:58:49;;;;;;;44.97;24.13;;;8.20;99.90;7.40;99825;;;;559326;251;24196;-82
2022/10/22 03:01:19;;;;;;;42.43;24.00;;;8.20;99.90;7.40;99822;;;;559304;253;24132;-80
2022/10/22 03:03:47;;;;;;;38.10;23.77;;;8.20;99.90;7.40;99826;;;;559203;253;24131;-81
2022/10/22 03:06:17;;;;;;;38.90;23.13;;;8.20;99.90;7.40;99825;;;;558821;251;24138;-82
2022/10/22 03:08:46;;;;;;;40.47;24.20;;;8.20;99.90;7.40;99830;;;;567452;248;24189;-81
2022/10/22 03:11:11;;;;;;;38.23;22.13;;;8.20;99.90;7.40;99827;;;;567027;253;24184;-82
2022/10/22 03:13:38;;;;;;;41.77;24.40;;;8.20;99.90;7.40;99835;;;;558502;253;24130;-82
2022/10/22 03:16:06;;;;;;;52.43;26.47;;;8.30;99.90;7.50;99834;;;;559039;253;24264;-81
2022/10/22 03:18:39;;;;;;;35.90;21.87;;;8.30;99.90;7.40;99841;;;;567684;251;24173;-82
2022/10/22 03:21:28;;;;;;;44.03;22.87;;;8.20;99.90;7.40;99831;;;;566233;253;24122;-83
2022/10/22 03:23:59;;;;;;;38.33;22.50;;;8.30;99.90;7.40;99837;;;;556035;253;24151;-81
2022/10/22 03:26:25;;;;;;;36.13;22.87;;;8.20;99.90;7.40;99837;;;;558515;253;24128;-83
2022/10/22 03:28:56;;;;;;;36.57;22.87;;;8.20;99.90;7.40;99834;;;;558446;253;24113;-83
2022/10/22 03:31:21;;;;;;;44.20;22.47;;;8.20;99.90;7.30;99832;;;;567855;252;24143;-84
2022/10/22 03:33:49;;;;;;;39.90;24.57;;;8.20;99.90;7.30;99834;;;;558548;253;25151;-84
2022/10/22 03:36:21;;;;;;;38.93;23.63;;;8.10;99.90;7.30;99830;;;;558913;253;24148;-84
2022/10/22 03:38:48;;;;;;;41.43;24.07;;;8.10;99.90;7.30;99832;;;;558157;253;24145;-84
2022/10/22 03:41:16;;;;;;;37.73;22.30;;;8.10;99.90;7.30;99836;;;;567154;253;24180;-82
2022/10/22 03:43:42;;;;;;;35.03;22.47;;;8.10;99.90;7.30;99835;;;;568550;251;24236;-83
2022/10/22 03:46:10;;;;;;;41.03;24.70;;;8.10;99.90;7.30;99830;;;;559388;252;24205;-84
2022/10/22 03:48:38;;;;;;;44.77;24.53;;;8.10;99.90;7.30;99832;;;;559212;252;24109;-83
2022/10/22 03:51:06;;;;;;;36.30;21.40;;;8.10;99.90;7.20;99833;;;;559003;252;24116;-80
2022/10/22 03:53:34;;;;;;;35.73;21.67;;;8.10;99.90;7.30;99848;;;;558918;250;24173;-83
2022/10/22 03:56:02;;;;;;;36.77;22.17;;;8.10;99.90;7.30;99847;;;;559234;250;24183;-83
2022/10/22 03:58:30;;;;;;;47.27;33.37;;;8.10;99.90;7.30;99847;;;;554051;252;35617;-83
2022/10/22 04:00:58;;;;;;;38.80;27.07;;;8.10;99.90;7.30;99846;;;;567956;251;25534;-82
2022/10/22 04:03:26;;;;;;;39.97;24.03;;;8.10;99.90;7.30;99844;;;;558502;252;24162;-82
2022/10/22 04:05:53;;;;;;;42.10;23.93;;;8.10;99.90;7.30;99850;;;;559155;253;24158;-83
2022/10/22 04:08:21;;;;;;;39.43;23.37;;;8.20;99.90;7.30;99842;;;;559130;251;24135;-83
2022/10/22 04:10:52;;;;;;;37.90;22.23;;;8.20;99.90;7.30;99838;;;;559173;253;24128;-84
2022/10/22 04:13:20;;;;;;;38.27;23.07;;;8.10;99.90;7.40;99849;;;;559064;253;24215;-83
2022/10/22 04:15:51;;;;;;;38.97;23.00;;;8.20;99.90;7.40;99852;;;;558723;253;24127;-84
2022/10/22 04:18:19;;;;;;;41.10;24.23;;;8.20;99.90;7.40;99831;;;;556442;253;24140;-83
2022/10/22 04:20:44;;;;;;;52.50;34.43;;;8.20;99.90;7.40;99826;;;;562046;247;35511;-83
2022/10/22 04:23:12;;;;;;;49.00;37.47;;;8.30;99.90;7.50;99820;;;;554211;253;46403;-82
2022/10/22 04:25:43;;;;;;;40.30;25.87;;;8.30;99.90;7.40;99808;;;;558989;253;24155;-81
2022/10/22 04:28:08;;;;;;;44.40;26.70;;;8.30;99.90;7.40;99799;;;;558506;253;24130;-83
2022/10/22 04:30:36;;;;;;;43.00;23.87;;;8.20;99.90;7.40;99798;;;;559055;253;24115;-82
2022/10/22 04:33:03;;;;;;;46.53;26.20;;;8.30;99.90;7.40;99803;;;;556601;251;24193;-82
2022/10/22 04:35:32;;;;;;;37.97;21.97;;;8.20;99.90;7.30;99808;;;;558852;253;24188;-83
2022/10/22 04:38:00;;;;;;;38.37;22.17;;;8.20;99.90;7.30;99812;;;;558706;251;24140;-81
2022/10/22 04:40:28;;;;;;;38.33;22.90;;;8.20;99.90;7.40;99829;;;;558652;251;24119;-82
2022/10/22 04:42:56;;;;;;;39.90;22.93;;;8.20;99.90;7.30;99826;;;;558749;253;24172;-82
2022/10/22 04:45:24;;;;;;;42.33;22.80;;;8.20;99.90;7.30;99825;;;;567810;251;24103;-84
2022/10/22 04:47:52;;;;;;;33.37;21.93;;;8.20;99.90;7.30;99825;;;;558712;253;24162;-81
2022/10/22 04:50:20;;;;;;;37.27;22.43;;;8.10;99.90;7.30;99825;;;;558872;253;24127;-84
2022/10/22 04:52:48;;;;;;;35.10;22.27;;;8.10;99.90;7.20;99829;;;;558983;253;24162;-83
2022/10/22 04:55:17;;;;;;;36.50;23.70;;;8.00;99.90;7.20;99829;;;;559888;252;24121;-83
2022/10/22 04:57:49;;;;;;;37.50;22.77;;;8.00;99.90;7.20;99830;;;;559733;252;24116;-83
2022/10/22 05:00:16;;;;;;;39.53;22.43;;;8.00;99.90;7.20;99826;;;;567706;252;24155;-84
2022/10/22 05:02:43;;;;;;;41.13;22.03;;;8.00;99.90;7.20;99822;;;;567514;251;24169;-83
2022/10/22 05:05:09;;;;;;;33.87;20.90;;;7.90;99.90;7.10;99821;;;;558944;251;24150;-84
2022/10/22 05:07:36;;;;;;;37.20;20.70;;;7.90;99.90;7.10;99829;;;;558856;252;24227;-82
2022/10/22 05:10:08;;;;;;;38.97;20.90;;;7.90;99.90;7.10;99829;;;;558634;252;24208;-82
2022/10/22 05:12:33;;;;;;;35.27;21.67;;;7.80;99.90;7.10;99823;;;;566785;253;24165;-83
2022/10/22 05:15:04;;;;;;;38.03;21.97;;;7.80;99.90;7.10;99810;;;;558946;253;24167;-82
2022/10/22 05:17:29;;;;;;;36.57;22.40;;;7.80;99.90;7.10;99796;;;;561040;253;24172;-81
2022/10/22 05:19:57;;;;;;;33.90;21.77;;;7.80;99.90;7.10;99795;;;;558752;253;24144;-81
2022/10/22 05:22:25;;;;;;;38.40;22.80;;;7.90;99.90;7.10;99792;;;;558923;253;24171;-81
2022/10/22 05:24:53;;;;;;;31.57;19.97;;;7.90;99.90;7.10;99805;;;;558863;253;24171;-79
2022/10/22 05:27:21;;;;;;;36.90;21.80;;;7.90;99.90;7.10;99795;;;;558654;253;24136;-83
2022/10/22 05:29:50;;;;;;;41.33;23.30;;;7.90;99.90;7.10;99793;;;;558639;253;24201;-82
2022/10/22 05:32:18;;;;;;;33.47;21.47;;;7.90;99.90;7.10;99785;;;;558516;253;24172;-83
2022/10/22 05:34:46;;;;;;;37.63;21.77;;;7.90;99.90;7.10;99772;;;;567532;251;24119;-84
2022/10/22 05:37:14;;;;;;;45.87;22.57;;;7.90;99.90;7.10;99777;;;;558497;253;24115;-83
2022/10/22 05:39:42;;;;;;;48.97;22.13;;;7.90;99.90;7.10;99775;;;;558560;253;24127;-84
2022/10/22 05:42:09;;;;;;;43.57;23.73;;;7.90;99.90;7.10;99786;;;;558664;251;24142;-84
2022/10/22 05:44:39;;;;;;;52.07;23.47;;;7.90;99.90;7.10;99805;;;;558440;253;24099;-82
2022/10/22 05:47:05;;;;;;;43.80;22.57;;;7.90;99.90;7.10;99812;;;;558492;253;24131;-83
2022/10/22 05:49:33;;;;;;;42.80;21.10;;;7.90;99.90;7.10;99813;;;;558588;253;24170;-81
2022/10/22 05:52:02;;;;;;;38.73;21.70;;;7.90;99.90;7.10;99821;;;;558532;253;24121;-82
2022/10/22 05:54:30;;;;;;;33.00;21.00;;;7.90;99.90;7.10;99837;;;;558500;253;24228;-81
2022/10/22 05:56:58;;;;;;;38.07;22.33;;;7.90;99.90;7.20;99847;;;;558506;253;24123;-83
2022/10/22 05:59:26;;;;;;;39.13;22.33;;;8.00;99.90;7.30;99840;;;;558460;253;24116;-82
2022/10/22 06:01:54;;;;;;;34.33;20.57;;;8.20;99.90;7.40;99821;;;;558517;253;24141;-81
2022/10/22 06:04:22;;;;;;;37.70;25.03;;;8.20;99.90;7.50;99836;;;;558430;253;24202;-81
2022/10/22 06:06:50;;;;;;;43.03;24.30;;;8.30;99.90;7.60;99841;;;;559378;252;24185;-82
2022/10/22 06:09:20;;;;;;;38.47;23.30;;;8.40;99.90;7.80;99840;;;;559105;250;24130;-81
2022/10/22 06:11:49;;;;;;;35.63;23.50;;;8.50;99.90;7.80;99827;;;;567820;251;24119;-81
2022/10/22 06:14:16;;;;;;;40.40;24.03;;;8.60;99.90;7.90;99833;;;;567218;246;24170;-80
2022/10/22 06:16:44;;;;;;;40.07;23.37;;;8.70;99.90;8.00;99834;;;;559084;250;24207;-81
2022/10/22 06:19:16;;;;;;;38.57;24.20;;;8.80;99.90;8.10;99829;;;;559071;252;24182;-81
2022/10/22 06:21:40;;;;;;;36.23;24.40;;;8.90;99.90;8.20;99832;;;;565958;252;24136;-83
2022/10/22 06:24:08;;;;;;;34.37;23.47;;;9.00;99.90;8.20;99849;;;;558919;253;24144;-81
2022/10/22 06:26:36;;;;;;;40.23;22.70;;;9.10;99.90;8.30;99857;;;;558313;251;24163;-82
2022/10/22 06:29:04;;;;;;;40.50;23.93;;;9.20;99.90;8.40;99852;;;;558478;253;24166;-81
2022/10/22 06:31:37;;;;;;;34.90;23.50;;;9.20;99.90;8.50;99854;;;;558498;253;25168;-81
2022/10/22 06:34:05;;;;;;;38.83;24.97;;;9.30;99.90;8.60;99859;;;;558568;253;24201;-80
2022/10/22 06:36:33;;;;;;;39.13;21.57;;;9.40;99.90;8.70;99857;;;;558437;253;24165;-81
2022/10/22 06:39:01;;;;;;;33.90;23.57;;;9.50;99.90;8.80;99858;;;;567675;251;24184;-81
2022/10/22 06:41:29;;;;;;;38.33;24.27;;;9.60;99.90;8.80;99859;;;;558303;253;24116;-82
2022/10/22 06:43:57;;;;;;;41.53;30.13;;;9.70;99.90;8.90;99865;;;;558081;253;24141;-82
2022/10/22 06:46:25;;;;;;;38.83;23.27;;;9.70;99.90;9.10;99855;;;;555962;251;24236;-81
2022/10/22 06:48:56;;;;;;;34.07;25.27;;;9.90;99.90;9.10;99855;;;;558124;253;24125;-83
2022/10/22 06:51:24;;;;;;;36.37;24.07;;;9.90;99.90;9.20;99857;;;;558286;252;24135;-83
2022/10/22 06:53:51;;;;;;;35.13;24.57;;;10.00;99.90;9.30;99853;;;;558114;253;24126;-81
2022/10/22 06:56:19;;;;;;;36.70;23.97;;;10.10;99.90;9.40;99857;;;;558111;252;24152;-82
2022/10/22 06:58:50;;;;;;;40.13;23.93;;;10.30;99.90;9.50;99853;;;;558625;253;24119;-83
2022/10/22 07:01:18;;;;;;;39.93;23.33;;;10.30;99.90;9.60;99849;;;;567398;253;24232;-82
2022/10/22 07:03:46;;;;;;;45.83;24.13;;;10.40;99.90;9.60;99843;;;;558771;253;24176;-84
2022/10/22 07:06:14;;;;;;;36.50;24.53;;;10.50;99.90;9.70;99840;;;;558533;253;24134;-84
2022/10/22 07:08:42;;;;;;;33.87;22.97;;;10.50;99.90;9.70;99848;;;;567755;246;24127;-83
2022/10/22 07:11:13;;;;;;;42.00;22.83;;;10.50;99.90;9.70;99856;;;;558722;253;24110;-82
2022/10/22 07:13:44;;;;;;;36.93;24.17;;;10.50;99.90;9.70;99858;;;;558035;253;24170;-82
2022/10/22 07:16:09;;;;;;;35.63;23.60;;;10.50;99.90;9.70;99866;;;;557934;253;24177;-84
2022/10/22 07:18:37;;;;;;;39.63;25.87;;;10.50;99.90;9.70;99860;;;;559420;252;24116;-82
2022/10/22 07:21:05;;;;;;;35.93;24.00;;;10.50;99.90;9.60;99861;;;;559288;252;24136;-83
2022/10/22 07:23:32;;;;;;;39.80;25.00;;;10.40;99.90;9.60;99871;;;;567226;250;24177;-81
2022/10/22 07:26:06;;;;;;;37.03;25.17;;;10.40;99.90;9.60;99877;;;;559057;252;24132;-83
2022/10/22 07:28:32;;;;;;;37.07;23.80;;;10.40;99.90;9.60;99874;;;;558628;252;24139;-83
2022/10/22 07:31:00;;;;;;;37.07;23.77;;;10.40;99.90;9.60;99876;;;;558617;252;24226;-83
2022/10/22 07:33:28;;;;;;;39.67;23.00;;;10.40;99.90;9.60;99884;;;;567721;251;24118;-84
2022/10/22 07:35:59;;;;;;;46.63;27.30;;;10.40;99.90;9.60;99885;;;;556623;253;24179;-83
2022/10/22 07:38:27;;;;;;;45.43;27.00;;;10.40;99.90;9.70;99879;;;;567288;253;24186;-84
2022/10/22 07:40:55;;;;;;;45.83;25.93;;;10.60;99.90;9.80;99877;;;;567351;251;24208;-82
2022/10/22 07:43:24;;;;;;;44.87;27.33;;;10.70;99.90;9.90;99887;;;;567346;251;24137;-82
2022/10/22 07:45:54;;;;;;;56.67;27.80;;;10.70;99.90;10.00;99888;;;;566670;251;24136;-81
2022/10/22 07:48:20;;;;;;;46.47;26.43;;;10.70;99.90;10.10;99887;;;;566482;247;24152;-81
2022/10/22 07:50:50;;;;;;;47.20;25.63;;;10.80;99.90;10.10;99883;;;;556614;253;24128;-81
2022/10/22 07:53:20;;;;;;;36.73;25.23;;;10.90;99.90;10.20;99880;;;;566528;253;24178;-81
2022/10/22 07:55:50;;;;;;;40.73;25.90;;;11.00;99.90;10.20;99876;;;;558248;252;24163;-84
2022/10/22 07:58:18;;;;;;;42.40;25.33;;;11.00;99.90;10.20;99880;;;;558129;253;24117;-81
2022/10/22 08:00:46;;;;;;;44.67;24.50;;;11.00;99.90;10.30;99879;;;;558255;253;24199;-81
2022/10/22 08:03:17;;;;;;;38.83;26.10;;;11.10;99.90;10.40;99875;;;;567004;246;24127;-82
2022/10/22 08:05:45;;;;;;;42.20;26.83;;;11.10;99.90;10.50;99866;;;;556460;253;24129;-82
2022/10/22 08:08:09;;;;;;;41.50;27.00;;;11.20;99.90;10.60;99870;;;;557781;253;24129;-81
2022/10/22 08:10:38;;;;;;;40.17;25.97;;;11.50;99.90;10.80;99877;;;;558516;253;24126;-82
2022/10/22 08:13:07;;;;;;;41.13;26.80;;;11.60;99.90;10.90;99884;;;;556720;253;24239;-82
2022/10/22 08:15:35;;;;;;;38.00;25.70;;;11.60;99.90;11.00;99878;;;;558301;253;24125;-82
2022/10/22 08:18:03;;;;;;;46.50;35.47;;;11.70;99.90;11.00;99887;;;;562390;250;35506;-82
2022/10/22 08:20:35;;;;;;;41.00;27.77;;;11.80;99.90;11.00;99884;;;;558223;253;24144;-82
2022/10/22 08:22:59;;;;;;;37.73;26.10;;;11.80;99.90;11.00;99878;;;;556126;253;24213;-84
2022/10/22 08:25:27;;;;;;;40.13;26.83;;;11.80;99.90;11.10;99884;;;;558460;253;24190;-84
2022/10/22 08:27:55;;;;;;;42.83;27.60;;;11.80;99.90;11.10;99875;;;;558214;253;24115;-83
2022/10/22 08:30:26;;;;;;;44.00;26.60;;;11.90;99.90;11.20;99871;;;;561755;252;24175;-84
2022/10/22 08:32:51;;;;;;;46.80;31.97;;;11.90;99.90;11.20;99855;;;;567792;251;24127;-83
2022/10/22 08:35:19;;;;;;;44.83;28.23;;;12.00;99.90;11.30;99864;;;;556891;252;24184;-83
2022/10/22 08:37:48;;;;;;;40.47;27.30;;;12.10;99.90;11.20;99864;;;;557059;252;24134;-82
2022/10/22 08:40:26;;;;;;;40.60;26.60;;;12.10;99.90;11.20;99871;;;;556302;250;24184;-82
2022/10/22 08:43:05;;;;;;;40.20;29.80;;;12.10;99.90;11.30;99878;;;;567358;246;24126;-83
2022/10/22 08:45:40;;;;;;;42.47;28.07;;;12.10;99.90;11.40;99880;;;;567263;251;24121;-82
2022/10/22 08:48:25;;;;;;;34.33;25.07;;;12.20;99.90;11.40;99871;;;;567201;246;24224;-82
2022/10/22 08:50:53;;;;;;;50.73;27.43;;;12.20;99.90;11.60;99873;;;;567796;251;24094;-82
2022/10/22 08:53:39;;;;;;;48.43;26.43;;;12.30;99.90;11.70;99874;;;;567277;247;25211;-82
2022/10/22 08:56:08;;;;;;;37.90;25.63;;;12.50;99.90;11.70;99874;;;;561173;253;24120;-82
2022/10/22 09:01:15;;;;;;;43.83;25.13;;;12.60;99.90;11.90;99873;;;;618023;228;31486;-82
2022/10/22 09:04:13;;;;;;;37.33;24.43;;;12.70;99.90;11.90;99877;;;;594964;237;24064;-80
2022/10/22 09:06:43;;;;;;;38.13;26.43;;;12.70;99.90;11.90;99868;;;;595879;237;24029;-81
2022/10/22 09:09:09;;;;;;;41.67;26.57;;;12.70;99.90;12.00;99866;;;;594908;237;24033;-84
2022/10/22 09:11:37;;;;;;;35.90;25.50;;;12.70;99.90;12.00;99874;;;;594814;237;24043;-82
2022/10/22 09:14:07;;;;;;;39.00;26.53;;;12.80;99.90;12.20;99869;;;;586687;241;24100;-84
2022/10/22 09:16:36;;;;;;;31.67;24.13;;;12.90;99.90;12.20;99877;;;;584160;241;24119;-82
2022/10/22 09:19:22;;;;;;;34.73;25.60;;;13.00;99.90;12.30;99876;;;;583832;241;25303;-83
2022/10/22 09:22:01;;;;;;;36.23;23.10;;;13.00;99.90;12.40;99887;;;;584350;241;24049;-82
2022/10/22 09:24:32;;;;;;;34.80;24.80;;;13.20;99.90;12.40;99885;;;;583383;241;24155;-81
2022/10/22 09:27:01;;;;;;;34.70;25.03;;;13.10;99.90;12.50;99896;;;;584149;241;24055;-81
2022/10/22 09:29:32;;;;;;;35.50;24.10;;;13.20;99.90;12.60;99892;;;;584164;241;24058;-82
2022/10/22 09:32:00;;;;;;;35.73;23.50;;;13.30;99.90;12.60;99905;;;;583888;241;24086;-81
2022/10/22 09:34:31;;;;;;;34.80;24.07;;;13.40;99.90;12.70;99898;;;;584060;241;24071;-83
2022/10/22 09:36:59;;;;;;;31.03;24.17;;;13.50;99.90;12.80;99903;;;;583592;241;24123;-82
2022/10/22 09:39:33;;;;;;;33.92;29.70;;;13.50;99.90;12.80;99904;;;;576627;241;35188;-82
2022/10/22 09:42:01;;;;;;;28.90;23.70;;;13.60;99.90;12.90;99901;;;;583874;241;24056;-81
2022/10/22 09:44:32;;;;;;;29.23;22.30;;;13.60;99.90;13.10;99908;;;;583865;241;24066;-82
2022/10/22 09:46:56;;;;;;;30.87;24.07;;;13.80;99.90;13.20;99909;;;;583362;241;24120;-84
2022/10/22 09:49:24;;;;;;;36.60;29.10;;;13.90;99.90;13.40;99909;;;;578924;241;35971;-84
2022/10/22 09:52:01;;;;;;;31.13;23.73;;;14.10;99.90;13.40;99912;;;;583442;241;24146;-84
2022/10/22 09:54:32;;;;;;;36.93;23.23;;;14.10;99.90;13.30;99920;;;;583364;241;24129;-83
2022/10/22 09:57:03;;;;;;;31.93;22.60;;;14.10;99.90;13.30;99908;;;;583173;241;24075;-84
2022/10/22 09:59:34;;;;;;;31.83;22.57;;;14.00;99.90;13.20;99910;;;;582918;241;24066;-80
2022/10/22 10:02:11;;;;;;;33.63;22.53;;;14.00;99.90;13.20;99908;;;;583729;241;24069;-80
2022/10/22 10:04:42;;;;;;;36.47;22.83;;;14.00;99.90;13.20;99896;;;;584016;241;24092;-82
2022/10/22 10:07:20;;;;;;;31.80;22.10;;;13.90;99.90;13.20;99895;;;;583629;241;24097;-82
2022/10/22 10:09:48;;;;;;;30.47;21.53;;;13.90;99.90;13.30;99891;;;;581896;241;24104;-81
2022/10/22 10:12:53;;;;;;;33.20;22.57;;;14.10;99.90;13.40;99896;;;;585655;241;24093;-82
2022/10/22 10:15:27;;;;;;;36.33;22.77;;;14.10;99.90;13.50;99894;;;;584480;241;24078;-83
2022/10/22 10:18:29;;;;;;;33.33;23.80;;;14.20;99.90;13.60;99887;;;;583426;241;24063;-82
2022/10/22 10:21:09;;;;;;;36.90;23.23;;;14.20;99.90;13.60;99889;;;;584422;241;24084;-84
2022/10/22 10:24:10;;;;;;;31.67;22.43;;;14.30;99.90;13.70;99888;;;;584273;241;24107;-82
2022/10/22 10:26:40;;;;;;;31.80;22.13;;;14.40;99.90;13.70;99891;;;;580857;241;24070;-81
2022/10/22 10:29:29;;;;;;;33.33;22.33;;;14.40;99.90;13.70;99888;;;;582012;241;24072;-82
2022/10/22 10:32:21;;;;;;;36.80;23.07;;;14.40;99.90;13.80;99890;;;;584683;241;24115;-83
2022/10/22 10:35:19;;;;;;;33.57;22.70;;;14.50;99.90;13.90;99887;;;;584897;241;24064;-82
2022/10/22 10:37:46;;;;;;;33.07;21.60;;;14.50;99.90;14.00;99886;;;;584937;241;24139;-81
2022/10/22 10:40:23;;;;;;;34.50;21.93;;;14.60;99.90;14.20;99887;;;;584158;241;24071;-83
2022/10/22 10:43:18;;;;;;;29.90;20.77;;;14.80;99.90;14.40;99890;;;;584663;241;24066;-82
2022/10/22 10:46:13;;;;;;;29.63;20.03;;;15.00;99.90;14.50;99897;;;;584598;241;24078;-84
2022/10/22 10:48:56;;;;;;;25.90;18.73;;;15.10;99.90;14.50;99892;;;;563098;237;24180;-83
2022/10/22 10:51:42;;;;;;;28.57;18.57;;;15.20;99.90;14.50;99891;;;;583760;242;24078;-79
2022/10/22 10:54:22;;;;;;;25.03;16.90;;;15.20;99.90;14.60;99891;;;;583724;242;24105;-83
2022/10/22 10:57:01;;;;;;;21.93;15.47;;;15.20;99.90;14.60;99887;;;;583739;242;24086;-83
2022/10/22 10:59:37;;;;;;;19.50;13.93;;;15.20;99.90;14.70;99885;;;;583290;242;24091;-83
2022/10/22 11:02:57;;;;;;;15.63;12.87;;;15.30;99.90;14.80;99882;;;;583243;242;24133;-83
2022/10/22 11:05:37;;;;;;;15.77;11.30;;;15.40;99.90;15.00;99888;;;;584102;242;24057;-84
2022/10/22 11:08:11;;;;;;;16.10;11.60;;;15.60;99.90;15.10;99886;;;;583413;242;24079;-85
2022/10/22 11:11:03;;;;;;;14.10;11.00;;;15.70;99.90;15.10;99881;;;;583577;242;24102;-84
2022/10/22 11:13:39;;;;;;;11.70;10.03;;;15.70;99.90;15.10;99883;;;;583988;242;24143;-83
2022/10/22 11:16:31;;;;;;;11.40;9.17;;;15.70;99.90;15.00;99879;;;;584590;242;24149;-82
2022/10/22 11:19:05;;;;;;;10.57;8.63;;;15.70;99.90;14.90;99879;;;;584775;242;24059;-83
2022/10/22 11:21:41;;;;;;;10.83;9.30;;;15.60;99.90;14.70;99875;;;;583894;242;24083;-84
2022/10/22 11:24:39;;;;;;;12.63;9.40;;;15.40;99.90;14.50;99878;;;;585679;241;24058;-81
2022/10/22 11:27:37;;;;;;;13.47;10.73;;;15.20;99.90;14.40;99875;;;;585337;241;24091;-83
2022/10/22 11:30:05;;;;;;;16.07;11.40;;;15.00;99.90;14.30;99878;;;;584817;241;24099;-83
2022/10/22 11:32:33;;;;;;;17.63;13.63;;;15.00;99.90;14.30;99874;;;;584178;241;24070;-83
2022/10/22 11:35:00;;;;;;;20.73;12.90;;;14.90;99.90;14.30;99874;;;;584634;241;24071;-83